createdAt,value
2018-11-25T00:00:59.823Z,98.41
2018-11-25T00:01:59.824Z,98.52
2018-11-25T00:02:59.823Z,98.41
2018-11-25T00:03:59.788Z,98.62
2018-11-25T00:04:59.781Z,98.41
2018-11-25T00:05:59.767Z,98.93
2018-11-25T00:06:59.768Z,98.52
2018-11-25T00:07:59.750Z,98.52
2018-11-25T00:08:59.740Z,98.26
2018-11-25T00:09:59.724Z,98.41
2018-11-25T00:10:59.711Z,98.41
2018-11-25T00:11:59.714Z,98.10
2018-11-25T00:12:59.690Z,98.20
2018-11-25T00:13:59.691Z,98.10
2018-11-25T00:14:59.676Z,98.52
2018-11-25T00:15:59.657Z,98.52
2018-11-25T00:16:59.646Z,98.62
2018-11-25T00:17:59.647Z,98.62
2018-11-25T00:18:59.623Z,98.62
2018-11-25T00:19:59.613Z,98.62
2018-11-25T00:20:59.625Z,98.99
2018-11-25T00:21:59.590Z,98.83
2018-11-25T00:22:59.612Z,98.99
2018-11-25T00:23:59.567Z,98.41
2018-11-25T00:24:59.557Z,98.72
2018-11-25T00:25:59.544Z,98.99
2018-11-25T00:26:59.541Z,98.78
2018-11-25T00:27:59.522Z,98.88
2018-11-25T00:28:59.525Z,98.99
2018-11-25T00:29:59.543Z,99.04
2018-11-25T00:30:59.489Z,99.20
2018-11-25T00:31:59.478Z,99.04
2018-11-25T00:32:59.479Z,98.83
2018-11-25T00:33:59.456Z,99.14
2018-11-25T00:34:59.444Z,99.10
2018-11-25T00:35:59.445Z,98.78
2018-11-25T00:36:59.424Z,98.78
2018-11-25T00:37:59.411Z,98.88
2018-11-25T00:38:59.406Z,98.93
2018-11-25T00:39:59.404Z,98.88
2018-11-25T00:40:59.378Z,98.68
2018-11-25T00:41:59.367Z,98.72
2018-11-25T00:42:59.355Z,99.14
2018-11-25T00:43:59.343Z,98.88
2018-11-25T00:44:59.357Z,98.93
2018-11-25T00:45:59.321Z,98.99
2018-11-25T00:46:59.311Z,98.72
2018-11-25T00:47:59.299Z,99.30
2018-11-25T00:48:59.288Z,99.51
2018-11-25T00:49:59.290Z,99.41
2018-11-25T00:50:59.280Z,98.88
2018-11-25T00:51:59.256Z,99.10
2018-11-25T00:52:59.256Z,98.99
2018-11-25T00:53:59.233Z,99.30
2018-11-25T00:54:59.268Z,99.30
2018-11-25T00:55:59.213Z,98.99
2018-11-25T00:57:03.863Z,98.99
2018-11-25T00:57:59.192Z,99.04
2018-11-25T00:58:59.178Z,99.14
2018-11-25T00:59:59.166Z,99.04
2018-11-25T01:00:59.168Z,99.10
2018-11-25T01:01:59.145Z,99.10
2018-11-25T01:02:59.140Z,99.35
2018-11-25T01:03:59.125Z,99.45
2018-11-25T01:04:59.111Z,99.45
2018-11-25T01:05:59.113Z,99.30
2018-11-25T01:06:59.120Z,99.30
2018-11-25T01:07:59.077Z,99.10
2018-11-25T01:08:59.074Z,99.41
2018-11-25T01:09:59.056Z,99.41
2018-11-25T01:10:59.049Z,98.62
2018-11-25T01:11:59.033Z,99.14
2018-11-25T01:12:59.054Z,99.45
2018-11-25T01:13:59.012Z,99.35
2018-11-25T01:14:59.007Z,98.93
2018-11-25T01:15:58.989Z,99.66
2018-11-25T01:16:58.979Z,99.45
2018-11-25T01:17:58.969Z,99.76
2018-11-25T01:18:58.969Z,99.76
2018-11-25T01:19:58.959Z,99.66
2018-11-25T01:20:58.942Z,99.72
2018-11-25T01:21:58.925Z,99.72
2018-11-25T01:22:58.912Z,99.62
2018-11-25T01:23:58.913Z,99.45
2018-11-25T01:24:58.889Z,99.55
2018-11-25T01:25:58.880Z,99.66
2018-11-25T01:26:58.874Z,99.66
2018-11-25T01:27:58.856Z,99.45
2018-11-25T01:28:58.884Z,99.62
2018-11-25T01:29:58.837Z,99.41
2018-11-25T01:30:58.824Z,99.41
2018-11-25T01:31:58.813Z,99.41
2018-11-25T01:32:58.814Z,99.41
2018-11-25T01:33:58.792Z,99.30
2018-11-25T01:35:01.199Z,99.41
2018-11-25T01:35:58.769Z,98.78
2018-11-25T01:36:58.769Z,99.10
2018-11-25T01:37:58.747Z,98.68
2018-11-25T01:38:58.747Z,98.88
2018-11-25T01:39:58.724Z,99.41
2018-11-25T01:40:58.745Z,98.99
2018-11-25T01:41:58.702Z,99.30
2018-11-25T01:42:58.693Z,98.88
2018-11-25T01:43:58.680Z,98.99
2018-11-25T01:44:58.674Z,99.24
2018-11-25T01:45:58.658Z,99.30
2018-11-25T01:46:58.679Z,99.04
2018-11-25T01:47:58.635Z,99.87
2018-11-25T01:48:58.626Z,99.55
2018-11-25T01:49:58.614Z,99.51
2018-11-25T01:50:58.609Z,99.66
2018-11-25T01:51:58.595Z,99.76
2018-11-25T01:52:58.613Z,99.98
2018-11-25T01:53:58.569Z,99.98
2018-11-25T01:54:58.560Z,99.99
2018-11-25T01:55:58.549Z,99.99
2018-11-25T01:56:58.543Z,99.99
2018-11-25T01:57:58.524Z,99.99
2018-11-25T01:58:58.546Z,99.99
2018-11-25T01:59:58.502Z,99.99
2018-11-25T02:00:58.491Z,99.99
2018-11-25T02:01:58.482Z,99.99
2018-11-25T02:02:58.474Z,99.99
2018-11-25T02:03:58.458Z,99.98
2018-11-25T02:04:58.482Z,99.99
2018-11-25T02:05:58.437Z,99.99
2018-11-25T02:06:58.427Z,99.99
2018-11-25T02:07:58.417Z,99.99
2018-11-25T02:08:58.411Z,99.99
2018-11-25T02:09:58.392Z,99.99
2018-11-25T02:10:58.393Z,99.99
2018-11-25T02:11:58.369Z,99.99
2018-11-25T02:12:58.358Z,99.99
2018-11-25T02:13:58.349Z,99.99
2018-11-25T02:14:58.340Z,99.99
2018-11-25T02:15:58.337Z,99.99
2018-11-25T02:16:58.315Z,99.99
2018-11-25T02:17:58.301Z,99.99
2018-11-25T02:18:58.294Z,99.99
2018-11-25T02:19:58.293Z,99.99
2018-11-25T02:20:58.276Z,99.99
2018-11-25T02:21:58.264Z,99.99
2018-11-25T02:22:58.259Z,99.99
2018-11-25T02:23:58.236Z,99.99
2018-11-25T02:24:58.225Z,99.99
2018-11-25T02:25:58.214Z,99.99
2018-11-25T02:26:58.224Z,99.99
2018-11-25T02:27:58.192Z,99.99
2018-11-25T02:28:58.184Z,99.99
2018-11-25T02:29:58.203Z,99.99
2018-11-25T02:30:58.164Z,99.99
2018-11-25T02:31:58.148Z,99.99
2018-11-25T02:32:58.148Z,99.99
2018-11-25T02:33:58.125Z,99.99
2018-11-25T02:34:58.114Z,99.99
2018-11-25T02:35:58.118Z,99.99
2018-11-25T02:36:58.091Z,99.99
2018-11-25T02:37:58.081Z,99.99
2018-11-25T02:38:58.077Z,99.99
2018-11-25T02:39:58.071Z,99.99
2018-11-25T02:40:58.049Z,99.99
2018-11-25T02:41:58.041Z,99.99
2018-11-25T02:42:58.027Z,99.99
2018-11-25T02:43:58.015Z,99.99
2018-11-25T02:44:58.040Z,99.99
2018-11-25T02:45:57.993Z,99.99
2018-11-25T02:46:57.988Z,99.99
2018-11-25T02:47:57.971Z,99.99
2018-11-25T02:48:57.961Z,99.99
2018-11-25T02:49:57.948Z,99.99
2018-11-25T02:50:57.956Z,99.99
2018-11-25T02:51:57.928Z,99.99
2018-11-25T02:52:57.914Z,99.99
2018-11-25T02:53:57.905Z,99.99
2018-11-25T02:54:57.894Z,99.99
2018-11-25T02:55:57.893Z,99.99
2018-11-25T02:56:57.954Z,99.99
2018-11-25T02:57:57.860Z,99.99
2018-11-25T02:58:57.848Z,99.99
2018-11-25T02:59:57.835Z,99.99
2018-11-25T03:00:57.826Z,99.99
2018-11-25T03:01:57.813Z,99.99
2018-11-25T03:02:57.847Z,99.99
2018-11-25T03:03:57.796Z,99.99
2018-11-25T03:04:57.780Z,99.99
2018-11-25T03:05:57.772Z,99.99
2018-11-25T03:06:57.759Z,99.99
2018-11-25T03:07:57.749Z,99.99
2018-11-25T03:08:57.777Z,99.99
2018-11-25T03:09:57.726Z,99.99
2018-11-25T03:10:57.716Z,99.99
2018-11-25T03:11:57.704Z,99.99
2018-11-25T03:12:57.694Z,99.99
2018-11-25T03:13:57.682Z,99.99
2018-11-25T03:14:57.690Z,99.99
2018-11-25T03:15:57.659Z,99.99
2018-11-25T03:16:57.650Z,99.99
2018-11-25T03:17:57.637Z,99.99
2018-11-25T03:18:57.639Z,99.99
2018-11-25T03:19:57.735Z,99.99
2018-11-25T03:20:57.609Z,99.99
2018-11-25T03:21:57.593Z,99.99
2018-11-25T03:22:57.583Z,99.99
2018-11-25T03:23:57.574Z,99.99
2018-11-25T03:24:57.558Z,99.99
2018-11-25T03:25:57.583Z,99.99
2018-11-25T03:26:57.543Z,99.99
2018-11-25T03:27:57.525Z,99.99
2018-11-25T03:28:57.515Z,99.99
2018-11-25T03:29:57.502Z,99.99
2018-11-25T03:30:57.491Z,99.99
2018-11-25T03:31:57.494Z,99.99
2018-11-25T03:32:57.477Z,99.99
2018-11-25T03:33:57.461Z,99.99
2018-11-25T03:34:57.480Z,99.99
2018-11-25T03:35:57.442Z,99.99
2018-11-25T03:36:57.434Z,99.99
2018-11-25T03:37:57.413Z,99.99
2018-11-25T03:38:57.417Z,99.99
2018-11-25T03:39:57.393Z,99.99
2018-11-25T03:40:57.394Z,99.99
2018-11-25T03:41:57.405Z,99.99
2018-11-25T03:42:57.366Z,99.99
2018-11-25T03:43:57.347Z,99.99
2018-11-25T03:44:57.343Z,99.99
2018-11-25T03:45:57.325Z,99.99
2018-11-25T03:46:57.316Z,99.99
2018-11-25T03:47:57.315Z,99.99
2018-11-25T03:48:57.332Z,99.99
2018-11-25T03:49:57.281Z,99.99
2018-11-25T03:50:57.280Z,99.99
2018-11-25T03:51:57.259Z,99.99
2018-11-25T03:52:57.253Z,99.99
2018-11-25T03:53:57.245Z,99.99
2018-11-25T03:54:57.238Z,99.99
2018-11-25T03:55:57.216Z,99.99
2018-11-25T03:56:57.212Z,99.99
2018-11-25T03:57:57.191Z,99.99
2018-11-25T03:58:57.182Z,99.99
2018-11-25T03:59:57.206Z,99.99
2018-11-25T04:00:57.159Z,99.99
2018-11-25T04:01:57.147Z,99.99
2018-11-25T04:02:57.145Z,99.99
2018-11-25T04:03:57.126Z,99.99
2018-11-25T04:04:57.112Z,99.99
2018-11-25T04:05:57.116Z,99.99
2018-11-25T04:06:57.092Z,99.99
2018-11-25T04:07:57.092Z,99.99
2018-11-25T04:08:57.076Z,99.99
2018-11-25T04:09:57.073Z,99.99
2018-11-25T04:10:57.051Z,99.99
2018-11-25T04:11:57.049Z,99.99
2018-11-25T04:12:57.035Z,99.99
2018-11-25T04:13:57.016Z,99.99
2018-11-25T04:14:57.024Z,99.99
2018-11-25T04:15:56.993Z,99.99
2018-11-25T04:16:56.980Z,99.99
2018-11-25T04:17:56.981Z,99.99
2018-11-25T04:18:56.958Z,99.99
2018-11-25T04:19:56.948Z,99.99
2018-11-25T04:20:56.940Z,99.99
2018-11-25T04:21:56.927Z,99.99
2018-11-25T04:22:56.946Z,99.99
2018-11-25T04:23:56.902Z,99.99
2018-11-25T04:24:56.896Z,99.99
2018-11-25T04:25:56.879Z,99.99
2018-11-25T04:26:56.876Z,99.99
2018-11-25T04:27:56.859Z,99.99
2018-11-25T04:28:56.861Z,99.99
2018-11-25T04:29:56.848Z,99.99
2018-11-25T04:30:56.865Z,99.99
2018-11-25T04:31:56.814Z,99.99
2018-11-25T04:32:56.825Z,99.99
2018-11-25T04:33:56.791Z,99.99
2018-11-25T04:34:56.779Z,99.99
2018-11-25T04:35:56.769Z,99.99
2018-11-25T04:36:56.773Z,99.99
2018-11-25T04:37:56.747Z,99.99
2018-11-25T04:38:56.741Z,99.99
2018-11-25T04:39:56.732Z,99.99
2018-11-25T04:40:56.725Z,99.99
2018-11-25T04:41:56.703Z,99.99
2018-11-25T04:42:56.692Z,99.99
2018-11-25T04:43:56.683Z,99.99
2018-11-25T04:44:56.673Z,99.99
2018-11-25T04:45:56.670Z,99.99
2018-11-25T04:46:56.649Z,99.99
2018-11-25T04:47:56.637Z,99.99
2018-11-25T04:48:56.645Z,99.99
2018-11-25T04:49:56.618Z,99.99
2018-11-25T04:50:56.609Z,99.99
2018-11-25T04:51:56.594Z,99.99
2018-11-25T04:52:56.616Z,99.99
2018-11-25T04:53:56.570Z,99.99
2018-11-25T04:54:56.559Z,99.99
2018-11-25T04:55:56.548Z,99.99
2018-11-25T04:56:56.548Z,99.99
2018-11-25T04:57:56.565Z,99.99
2018-11-25T04:58:56.520Z,99.99
2018-11-25T04:59:56.503Z,99.99
2018-11-25T05:00:56.494Z,99.99
2018-11-25T05:01:56.482Z,99.99
2018-11-25T05:02:56.482Z,99.99
2018-11-25T05:03:56.472Z,99.99
2018-11-25T05:04:56.448Z,99.99
2018-11-25T05:05:56.438Z,99.99
2018-11-25T05:06:56.430Z,99.99
2018-11-25T05:07:56.417Z,99.99
2018-11-25T05:08:56.448Z,99.99
2018-11-25T05:09:56.394Z,99.99
2018-11-25T05:10:56.381Z,99.99
2018-11-25T05:11:56.371Z,99.99
2018-11-25T05:12:56.362Z,99.99
2018-11-25T05:13:56.349Z,99.99
2018-11-25T05:14:56.357Z,99.99
2018-11-25T05:15:56.327Z,99.99
2018-11-25T05:16:56.317Z,99.99
2018-11-25T05:17:56.304Z,99.99
2018-11-25T05:18:56.292Z,99.99
2018-11-25T05:19:56.315Z,99.99
2018-11-25T05:20:56.277Z,99.99
2018-11-25T05:21:56.258Z,99.99
2018-11-25T05:22:56.252Z,99.99
2018-11-25T05:23:56.238Z,99.99
2018-11-25T05:24:56.226Z,99.99
2018-11-25T05:25:56.228Z,99.99
2018-11-25T05:26:56.258Z,99.99
2018-11-25T05:27:56.194Z,99.99
2018-11-25T05:28:56.183Z,99.99
2018-11-25T05:29:56.170Z,99.99
2018-11-25T05:30:56.171Z,99.99
2018-11-25T05:31:56.151Z,99.99
2018-11-25T05:32:56.145Z,99.99
2018-11-25T05:33:56.128Z,99.99
2018-11-25T05:34:56.114Z,99.99
2018-11-25T05:35:56.116Z,99.99
2018-11-25T05:36:56.105Z,99.99
2018-11-25T05:37:56.081Z,99.99
2018-11-25T05:38:56.076Z,99.99
2018-11-25T05:39:56.059Z,99.99
2018-11-25T05:40:56.066Z,99.99
2018-11-25T05:41:56.050Z,99.99
2018-11-25T05:42:56.084Z,99.99
2018-11-25T05:43:56.016Z,99.99
2018-11-25T05:44:56.011Z,99.99
2018-11-25T05:45:55.993Z,99.99
2018-11-25T05:46:56.017Z,99.99
2018-11-25T05:47:55.971Z,99.99
2018-11-25T05:48:55.960Z,99.99
2018-11-25T05:49:55.947Z,99.99
2018-11-25T05:50:55.946Z,99.99
2018-11-25T05:51:55.927Z,99.99
2018-11-25T05:52:55.935Z,99.99
2018-11-25T05:53:55.904Z,99.99
2018-11-25T05:54:55.926Z,99.99
2018-11-25T05:55:55.888Z,99.99
2018-11-25T05:56:55.884Z,99.99
2018-11-25T05:57:55.860Z,99.99
2018-11-25T05:58:55.849Z,99.99
2018-11-25T05:59:55.845Z,99.99
2018-11-25T06:00:55.856Z,99.99
2018-11-25T06:01:55.816Z,99.99
2018-11-25T06:02:55.816Z,99.99
2018-11-25T06:03:55.795Z,99.99
2018-11-25T06:04:55.784Z,99.99
2018-11-25T06:05:55.772Z,99.99
2018-11-25T06:06:55.774Z,99.99
2018-11-25T06:07:55.750Z,99.99
2018-11-25T06:08:55.745Z,99.99
2018-11-25T06:09:55.740Z,99.99
2018-11-25T06:10:55.720Z,99.99
2018-11-25T06:11:55.746Z,99.99
2018-11-25T06:12:55.695Z,99.99
2018-11-25T06:13:55.683Z,99.99
2018-11-25T06:14:55.677Z,99.99
2018-11-25T06:15:55.660Z,99.99
2018-11-25T06:16:55.650Z,99.99
2018-11-25T06:17:55.650Z,99.99
2018-11-25T06:18:55.646Z,99.99
2018-11-25T06:19:55.614Z,99.99
2018-11-25T06:20:55.643Z,99.99
2018-11-25T06:21:55.597Z,99.99
2018-11-25T06:22:55.582Z,99.99
2018-11-25T06:23:55.572Z,99.99
2018-11-25T06:24:55.560Z,99.99
2018-11-25T06:25:55.550Z,99.99
2018-11-25T06:26:55.575Z,99.99
2018-11-25T06:27:55.531Z,99.99
2018-11-25T06:28:55.518Z,99.99
2018-11-25T06:29:55.508Z,99.99
2018-11-25T06:30:55.495Z,99.99
2018-11-25T06:31:55.485Z,99.99
2018-11-25T06:32:55.491Z,99.99
2018-11-25T06:33:55.462Z,99.99
2018-11-25T06:34:55.448Z,99.99
2018-11-25T06:35:55.441Z,99.99
2018-11-25T06:36:55.467Z,99.99
2018-11-25T06:37:55.415Z,99.99
2018-11-25T06:38:55.414Z,99.99
2018-11-25T06:39:55.394Z,99.99
2018-11-25T06:40:55.383Z,99.99
2018-11-25T06:41:55.369Z,99.99
2018-11-25T06:42:55.373Z,99.99
2018-11-25T06:43:55.381Z,99.99
2018-11-25T06:44:55.348Z,99.99
2018-11-25T06:45:55.326Z,99.99
2018-11-25T06:46:55.315Z,99.99
2018-11-25T06:47:55.303Z,99.99
2018-11-25T06:48:55.293Z,99.99
2018-11-25T06:49:55.296Z,99.99
2018-11-25T06:50:55.280Z,99.99
2018-11-25T06:51:55.257Z,99.99
2018-11-25T06:52:55.248Z,99.99
2018-11-25T06:53:55.238Z,99.99
2018-11-25T06:54:55.264Z,99.99
2018-11-25T06:55:55.214Z,99.99
2018-11-25T06:56:55.213Z,99.99
2018-11-25T06:57:55.193Z,99.99
2018-11-25T06:58:55.183Z,99.99
2018-11-25T06:59:55.183Z,99.99
2018-11-25T07:00:55.171Z,99.99
2018-11-25T07:01:55.176Z,99.99
2018-11-25T07:02:55.151Z,99.99
2018-11-25T07:03:55.125Z,99.99
2018-11-25T07:04:55.115Z,99.99
2018-11-25T07:05:55.103Z,99.99
2018-11-25T07:06:55.092Z,99.99
2018-11-25T07:07:55.119Z,99.99
2018-11-25T07:08:55.075Z,99.99
2018-11-25T07:09:55.058Z,99.99
2018-11-25T07:10:55.048Z,99.99
2018-11-25T07:11:55.035Z,99.99
2018-11-25T07:12:55.030Z,99.99
2018-11-25T07:13:55.025Z,99.99
2018-11-25T07:14:55.008Z,99.99
2018-11-25T07:15:54.991Z,99.99
2018-11-25T07:16:54.979Z,99.99
2018-11-25T07:17:54.968Z,99.99
2018-11-25T07:18:54.976Z,99.99
2018-11-25T07:19:55.001Z,99.99
2018-11-25T07:20:54.941Z,99.99
2018-11-25T07:21:54.926Z,99.99
2018-11-25T07:22:54.913Z,99.99
2018-11-25T07:23:54.903Z,99.99
2018-11-25T07:24:54.923Z,99.99
2018-11-25T07:25:54.881Z,99.99
2018-11-25T07:26:54.875Z,99.99
2018-11-25T07:27:54.858Z,99.99
2018-11-25T07:28:54.845Z,99.99
2018-11-25T07:29:54.837Z,99.99
2018-11-25T07:30:54.917Z,99.99
2018-11-25T07:31:54.814Z,99.99
2018-11-25T07:32:54.808Z,99.99
2018-11-25T07:33:54.792Z,99.99
2018-11-25T07:34:54.782Z,99.99
2018-11-25T07:35:54.769Z,99.99
2018-11-25T07:36:54.799Z,99.99
2018-11-25T07:37:54.747Z,99.99
2018-11-25T07:38:54.747Z,99.99
2018-11-25T07:39:54.726Z,99.99
2018-11-25T07:40:54.713Z,99.99
2018-11-25T07:41:54.702Z,99.99
2018-11-25T07:42:54.702Z,99.99
2018-11-25T07:43:54.680Z,99.99
2018-11-25T07:44:54.677Z,99.99
2018-11-25T07:45:54.661Z,99.99
2018-11-25T07:46:54.681Z,99.99
2018-11-25T07:47:54.636Z,99.88
2018-11-25T07:48:54.625Z,99.99
2018-11-25T07:49:54.614Z,99.99
2018-11-25T07:50:54.609Z,99.99
2018-11-25T07:51:54.592Z,99.99
2018-11-25T07:52:54.614Z,99.99
2018-11-25T07:53:54.568Z,99.99
2018-11-25T07:54:54.558Z,99.99
2018-11-25T07:55:54.549Z,99.99
2018-11-25T07:56:54.544Z,99.99
2018-11-25T07:57:54.524Z,99.99
2018-11-25T07:58:54.557Z,99.99
2018-11-25T07:59:54.501Z,99.88
2018-11-25T08:00:54.490Z,99.99
2018-11-25T08:01:54.478Z,99.99
2018-11-25T08:02:54.474Z,99.99
2018-11-25T08:03:54.458Z,99.99
2018-11-25T08:04:54.458Z,99.99
2018-11-25T08:05:54.433Z,99.99
2018-11-25T08:06:54.424Z,99.99
2018-11-25T08:07:54.413Z,99.94
2018-11-25T08:08:54.423Z,99.99
2018-11-25T08:09:54.402Z,99.99
2018-11-25T08:10:54.381Z,99.99
2018-11-25T08:11:54.427Z,99.88
2018-11-25T08:12:54.355Z,99.73
2018-11-25T08:13:54.344Z,99.94
2018-11-25T08:14:54.356Z,99.99
2018-11-25T08:15:54.325Z,99.99
2018-11-25T08:16:54.311Z,99.99
2018-11-25T08:17:54.313Z,99.99
2018-11-25T08:18:54.289Z,99.94
2018-11-25T08:19:54.279Z,99.99
2018-11-25T08:20:54.289Z,99.99
2018-11-25T08:21:54.257Z,99.94
2018-11-25T08:22:54.256Z,99.84
2018-11-25T08:23:54.234Z,99.99
2018-11-25T08:24:54.222Z,99.94
2018-11-25T08:25:54.213Z,99.63
2018-11-25T08:26:54.211Z,99.52
2018-11-25T08:27:54.231Z,99.32
2018-11-25T08:28:54.177Z,99.63
2018-11-25T08:29:54.168Z,99.42
2018-11-25T08:30:54.155Z,99.52
2018-11-25T08:31:54.146Z,99.42
2018-11-25T08:32:54.150Z,99.99
2018-11-25T08:33:54.160Z,99.52
2018-11-25T08:34:54.121Z,99.99
2018-11-25T08:35:54.101Z,99.99
2018-11-25T08:36:54.089Z,99.42
2018-11-25T08:37:54.084Z,99.94
2018-11-25T08:38:54.073Z,99.99
2018-11-25T08:39:54.090Z,99.99
2018-11-25T08:40:54.045Z,99.99
2018-11-25T08:41:54.034Z,99.99
2018-11-25T08:42:54.025Z,99.99
2018-11-25T08:43:54.012Z,99.99
2018-11-25T08:44:54.126Z,99.99
2018-11-25T08:45:54.002Z,99.99
2018-11-25T08:46:53.979Z,99.99
2018-11-25T08:47:53.967Z,99.99
2018-11-25T08:48:53.956Z,99.99
2018-11-25T08:49:53.946Z,99.99
2018-11-25T08:50:53.953Z,99.99
2018-11-25T08:51:53.953Z,99.99
2018-11-25T08:52:53.911Z,99.99
2018-11-25T08:53:53.900Z,99.99
2018-11-25T08:54:54.964Z,99.99
2018-11-25T08:55:53.878Z,99.99
2018-11-25T08:56:53.875Z,99.99
2018-11-25T08:57:53.890Z,99.99
2018-11-25T08:58:53.843Z,99.99
2018-11-25T08:59:53.833Z,99.99
2018-11-25T09:00:53.821Z,99.99
2018-11-25T09:01:53.811Z,99.99
2018-11-25T09:02:53.809Z,99.99
2018-11-25T09:03:53.801Z,99.99
2018-11-25T09:04:53.776Z,99.99
2018-11-25T09:05:53.768Z,99.99
2018-11-25T09:06:53.756Z,99.99
2018-11-25T09:07:53.760Z,99.99
2018-11-25T09:08:53.743Z,99.48
2018-11-25T09:09:53.734Z,99.68
2018-11-25T09:10:53.713Z,99.79
2018-11-25T09:11:53.700Z,99.27
2018-11-25T09:12:56.113Z,99.37
2018-11-25T09:13:53.682Z,99.48
2018-11-25T09:14:53.705Z,99.16
2018-11-25T09:15:53.657Z,99.37
2018-11-25T09:16:53.645Z,99.27
2018-11-25T09:17:53.637Z,99.43
2018-11-25T09:18:53.623Z,99.48
2018-11-25T09:19:53.612Z,99.37
2018-11-25T09:20:53.639Z,99.27
2018-11-25T09:21:53.593Z,99.33
2018-11-25T09:22:53.579Z,99.27
2018-11-25T09:23:53.566Z,99.22
2018-11-25T09:24:53.554Z,99.74
2018-11-25T09:25:53.546Z,99.48
2018-11-25T09:26:53.554Z,99.48
2018-11-25T09:27:53.524Z,99.22
2018-11-25T09:28:53.527Z,99.48
2018-11-25T09:29:53.501Z,99.43
2018-11-25T09:30:53.489Z,99.22
2018-11-25T09:31:53.492Z,99.48
2018-11-25T09:32:53.476Z,99.22
2018-11-25T09:33:53.471Z,99.54
2018-11-25T09:34:53.447Z,99.43
2018-11-25T09:35:53.434Z,99.22
2018-11-25T09:36:53.424Z,99.54
2018-11-25T09:37:53.413Z,99.22
2018-11-25T09:38:53.421Z,99.43
2018-11-25T09:39:53.392Z,98.71
2018-11-25T09:40:59.180Z,99.22
2018-11-25T09:41:54.368Z,98.91
2018-11-25T09:42:53.389Z,98.91
2018-11-25T09:43:53.346Z,99.12
2018-11-25T09:44:53.344Z,99.22
2018-11-25T09:45:53.329Z,98.60
2018-11-25T09:46:53.312Z,98.81
2018-11-25T09:47:53.302Z,99.02
2018-11-25T09:48:53.303Z,98.39
2018-11-25T09:49:53.279Z,98.29
2018-11-25T09:50:53.278Z,97.98
2018-11-25T09:51:53.258Z,98.03
2018-11-25T09:52:53.247Z,98.14
2018-11-25T09:53:53.248Z,98.55
2018-11-25T09:54:53.222Z,98.97
2018-11-25T09:55:53.225Z,98.45
2018-11-25T09:56:53.211Z,98.14
2018-11-25T09:57:53.190Z,98.14
2018-11-25T09:58:53.214Z,98.66
2018-11-25T09:59:53.172Z,98.55
2018-11-25T10:00:53.159Z,98.35
2018-11-25T10:01:53.147Z,98.35
2018-11-25T10:02:53.142Z,98.76
2018-11-25T10:03:53.123Z,98.14
2018-11-25T10:04:53.155Z,98.24
2018-11-25T10:05:53.102Z,98.14
2018-11-25T10:06:53.092Z,98.45
2018-11-25T10:07:53.079Z,98.35
2018-11-25T10:08:53.078Z,98.35
2018-11-25T10:09:53.072Z,98.35
2018-11-25T10:10:53.058Z,98.30
2018-11-25T10:11:53.037Z,98.14
2018-11-25T10:12:53.024Z,97.93
2018-11-25T10:13:53.015Z,97.83
2018-11-25T10:14:53.007Z,97.83
2018-11-25T10:15:53.028Z,97.72
2018-11-25T10:16:52.980Z,98.24
2018-11-25T10:17:59.317Z,98.35
2018-11-25T10:18:53.956Z,98.51
2018-11-25T10:19:52.947Z,98.61
2018-11-25T10:20:52.939Z,98.61
2018-11-25T10:21:52.962Z,98.72
2018-11-25T10:22:52.912Z,98.41
2018-11-25T10:23:52.903Z,97.99
2018-11-25T10:24:52.891Z,97.99
2018-11-25T10:25:52.879Z,97.89
2018-11-25T10:26:52.872Z,97.58
2018-11-25T10:27:52.870Z,97.99
2018-11-25T10:28:52.847Z,97.89
2018-11-25T10:29:52.835Z,97.68
2018-11-25T10:30:52.824Z,98.30
2018-11-25T10:31:52.811Z,98.30
2018-11-25T10:32:52.847Z,97.68
2018-11-25T10:33:52.795Z,97.78
2018-11-25T10:34:52.780Z,98.10
2018-11-25T10:35:52.767Z,97.99
2018-11-25T10:36:52.757Z,97.89
2018-11-25T10:37:52.745Z,98.30
2018-11-25T10:38:52.760Z,98.51
2018-11-25T10:39:52.725Z,98.72
2018-11-25T10:40:52.717Z,98.47
2018-11-25T10:41:52.704Z,98.47
2018-11-25T10:42:52.721Z,97.99
2018-11-25T10:43:52.677Z,97.85
2018-11-25T10:44:52.671Z,98.05
2018-11-25T10:45:52.656Z,97.74
2018-11-25T10:46:52.644Z,97.85
2018-11-25T10:47:52.632Z,97.74
2018-11-25T10:48:52.653Z,98.26
2018-11-25T10:49:52.612Z,98.26
2018-11-25T10:50:52.605Z,97.85
2018-11-25T10:51:52.588Z,97.85
2018-11-25T10:52:52.580Z,97.85
2018-11-25T10:53:52.565Z,98.36
2018-11-25T10:54:52.591Z,98.36
2018-11-25T10:55:52.542Z,98.26
2018-11-25T10:56:52.537Z,97.95
2018-11-25T10:57:52.519Z,97.74
2018-11-25T10:58:52.509Z,97.74
2018-11-25T10:59:52.497Z,97.74
2018-11-25T11:00:52.525Z,98.05
2018-11-25T11:01:52.476Z,97.68
2018-11-25T11:02:52.470Z,98.36
2018-11-25T11:03:52.452Z,98.16
2018-11-25T11:04:52.441Z,97.85
2018-11-25T11:05:52.429Z,98.68
2018-11-25T11:06:52.456Z,98.36
2018-11-25T11:07:52.407Z,98.16
2018-11-25T11:08:52.404Z,97.85
2018-11-25T11:09:52.386Z,97.95
2018-11-25T11:10:52.375Z,98.05
2018-11-25T11:11:52.361Z,98.05
2018-11-25T11:12:52.363Z,98.16
2018-11-25T11:13:52.341Z,98.16
2018-11-25T11:14:52.333Z,98.36
2018-11-25T11:15:52.317Z,97.85
2018-11-25T11:16:54.006Z,98.16
2018-11-25T11:17:52.306Z,98.26
2018-11-25T11:18:52.282Z,98.36
2018-11-25T11:19:52.284Z,98.78
2018-11-25T11:20:52.262Z,98.88
2018-11-25T11:21:52.249Z,99.19
2018-11-25T11:22:52.274Z,98.88
2018-11-25T11:23:52.226Z,98.78
2018-11-25T11:24:52.214Z,99.19
2018-11-25T11:25:52.204Z,99.09
2018-11-25T11:26:52.201Z,98.78
2018-11-25T11:27:52.182Z,98.78
2018-11-25T11:28:52.184Z,98.68
2018-11-25T11:29:52.161Z,99.04
2018-11-25T11:30:52.149Z,98.83
2018-11-25T11:31:52.141Z,99.15
2018-11-25T11:32:52.133Z,99.56
2018-11-25T11:33:52.147Z,99.04
2018-11-25T11:34:52.104Z,98.99
2018-11-25T11:35:52.093Z,98.68
2018-11-25T11:36:52.083Z,98.47
2018-11-25T11:37:52.076Z,98.78
2018-11-25T11:38:52.065Z,98.99
2018-11-25T11:39:52.070Z,98.88
2018-11-25T11:40:52.043Z,99.61
2018-11-25T11:41:52.026Z,99.30
2018-11-25T11:42:52.014Z,98.88
2018-11-25T11:43:52.004Z,99.30
2018-11-25T11:44:52.013Z,99.09
2018-11-25T11:45:51.984Z,99.04
2018-11-25T11:46:51.975Z,99.04
2018-11-25T11:47:51.961Z,98.83
2018-11-25T11:48:51.949Z,98.32
2018-11-25T11:49:51.950Z,98.83
2018-11-25T11:50:51.940Z,98.11
2018-11-25T11:51:51.916Z,98.52
2018-11-25T11:52:51.903Z,98.52
2018-11-25T11:53:51.892Z,98.52
2018-11-25T11:54:51.910Z,98.52
2018-11-25T11:55:51.872Z,98.94
2018-11-25T11:56:51.866Z,99.46
2018-11-25T11:57:51.849Z,98.73
2018-11-25T11:58:51.839Z,98.73
2018-11-25T11:59:51.827Z,98.63
2018-11-25T12:00:51.845Z,98.42
2018-11-25T12:01:51.804Z,98.63
2018-11-25T12:02:51.804Z,98.21
2018-11-25T12:03:51.780Z,98.83
2018-11-25T12:04:51.773Z,98.52
2018-11-25T12:05:51.760Z,98.52
2018-11-25T12:06:51.789Z,99.15
2018-11-25T12:07:51.739Z,99.25
2018-11-25T12:08:51.732Z,99.35
2018-11-25T12:09:51.715Z,99.35
2018-11-25T12:10:51.705Z,99.25
2018-11-25T12:11:51.695Z,99.04
2018-11-25T12:12:51.692Z,99.25
2018-11-25T12:13:51.670Z,99.35
2018-11-25T12:14:51.678Z,99.56
2018-11-25T12:15:51.647Z,99.35
2018-11-25T12:16:51.637Z,99.09
2018-11-25T12:17:51.628Z,99.19
2018-11-25T12:18:51.617Z,99.40
2018-11-25T12:19:51.616Z,98.99
2018-11-25T12:20:51.602Z,98.99
2018-11-25T12:21:58.119Z,99.30
2018-11-25T12:22:52.570Z,99.15
2018-11-25T12:23:51.561Z,99.40
2018-11-25T12:24:51.549Z,99.19
2018-11-25T12:25:51.540Z,99.19
2018-11-25T12:26:51.577Z,99.30
2018-11-25T12:27:51.521Z,99.35
2018-11-25T12:28:51.509Z,99.40
2018-11-25T12:29:51.495Z,99.66
2018-11-25T12:30:51.482Z,99.77
2018-11-25T12:31:51.472Z,99.35
2018-11-25T12:32:51.485Z,99.15
2018-11-25T12:33:51.448Z,99.35
2018-11-25T12:34:51.441Z,99.04
2018-11-25T12:35:51.432Z,99.56
2018-11-25T12:36:51.419Z,99.15
2018-11-25T12:37:51.417Z,99.35
2018-11-25T12:38:51.438Z,99.15
2018-11-25T12:39:51.383Z,98.94
2018-11-25T12:40:51.371Z,99.25
2018-11-25T12:41:51.361Z,98.83
2018-11-25T12:42:51.350Z,99.35
2018-11-25T12:43:51.337Z,99.04
2018-11-25T12:44:51.344Z,99.46
2018-11-25T12:45:51.315Z,98.94
2018-11-25T12:46:51.305Z,99.15
2018-11-25T12:47:51.307Z,99.04
2018-11-25T12:48:51.284Z,99.15
2018-11-25T12:49:51.273Z,99.25
2018-11-25T12:50:51.266Z,99.04
2018-11-25T12:51:51.248Z,99.00
2018-11-25T12:52:51.272Z,99.56